createdAt,value
2019-04-06T00:01:54.021Z,10.60
2019-04-06T00:06:58.854Z,10.50
2019-04-06T00:12:03.808Z,10.50
2019-04-06T00:17:08.646Z,10.40
2019-04-06T00:22:13.480Z,10.40
2019-04-06T00:27:18.325Z,10.30
2019-04-06T00:32:30.578Z,10.20
2019-04-06T00:37:35.423Z,10.10
2019-04-06T00:42:40.364Z,9.90
2019-04-06T00:47:45.209Z,9.80
2019-04-06T00:52:50.047Z,9.60
2019-04-06T00:57:54.904Z,9.40
2019-04-06T01:02:59.808Z,9.20
2019-04-06T01:08:05.013Z,9.10
2019-04-06T01:13:10.523Z,8.90
2019-04-06T01:18:15.354Z,8.80
2019-04-06T01:23:20.193Z,8.70
2019-04-06T01:28:25.044Z,8.60
2019-04-06T01:33:29.887Z,8.60
2019-04-06T01:38:34.867Z,8.50
2019-04-06T01:43:39.729Z,8.50
2019-04-06T01:48:44.567Z,8.40
2019-04-06T01:53:49.742Z,8.40
2019-04-06T01:58:55.261Z,8.40
2019-04-06T02:04:00.302Z,8.30
2019-04-06T02:09:06.132Z,8.30
2019-04-06T02:14:11.368Z,8.30
2019-04-06T02:19:16.124Z,8.40
2019-04-06T02:24:20.981Z,8.30
2019-04-06T02:29:25.809Z,8.40
2019-04-06T02:34:44.028Z,8.30
2019-04-06T02:40:07.720Z,8.30
2019-04-06T02:45:12.456Z,8.20
2019-04-06T02:50:17.655Z,8.20
2019-04-06T02:55:22.386Z,8.00
2019-04-06T03:00:27.642Z,8.00
2019-04-06T03:05:32.512Z,7.80
2019-04-06T03:10:37.328Z,7.70
2019-04-06T03:15:42.229Z,7.60
2019-04-06T03:20:47.079Z,7.50
2019-04-06T03:25:51.901Z,7.40
2019-04-06T03:30:56.837Z,7.30
2019-04-06T03:36:02.105Z,7.20
2019-04-06T03:41:07.021Z,7.10
2019-04-06T03:46:11.868Z,7.10
2019-04-06T03:51:16.693Z,7.10
2019-04-06T03:56:21.536Z,6.90
2019-04-06T04:01:26.388Z,6.90
2019-04-06T04:06:31.351Z,6.80
2019-04-06T04:11:36.149Z,6.70
2019-04-06T04:16:41.092Z,6.60
2019-04-06T04:21:45.932Z,6.60
2019-04-06T04:26:50.785Z,6.50
2019-04-06T04:31:55.636Z,6.50
2019-04-06T04:37:01.033Z,6.60
2019-04-06T04:42:05.867Z,6.50
2019-04-06T04:47:10.658Z,6.50
2019-04-06T04:52:15.459Z,6.60
2019-04-06T04:57:20.425Z,6.70
2019-04-06T05:02:25.711Z,6.70
2019-04-06T05:07:30.548Z,6.80
2019-04-06T05:12:35.391Z,6.80
2019-04-06T05:17:40.522Z,7.00
2019-04-06T05:22:45.309Z,7.10
2019-04-06T05:27:52.205Z,7.20
2019-04-06T05:32:56.624Z,7.40
2019-04-06T05:38:01.445Z,7.60
2019-04-06T05:43:06.287Z,7.70
2019-04-06T05:48:11.214Z,8.00
2019-04-06T05:53:16.030Z,8.20
2019-04-06T05:58:20.865Z,8.40
2019-04-06T06:03:25.872Z,8.70
2019-04-06T06:08:30.755Z,9.00
2019-04-06T06:13:35.593Z,9.30
2019-04-06T06:18:42.030Z,9.50
2019-04-06T06:23:46.852Z,9.80
2019-04-06T06:28:51.619Z,10.00
2019-04-06T06:33:56.473Z,10.20
2019-04-06T06:39:01.325Z,10.40
2019-04-06T06:44:06.175Z,10.60
2019-04-06T06:49:11.031Z,10.90
2019-04-06T06:54:15.862Z,11.20
2019-04-06T06:59:20.710Z,11.20
2019-04-06T07:04:25.549Z,11.40
2019-04-06T07:09:30.389Z,11.60
2019-04-06T07:14:35.233Z,11.80
2019-04-06T07:19:40.169Z,12.00
2019-04-06T07:24:47.301Z,12.20
2019-04-06T07:29:51.918Z,12.40
2019-04-06T07:34:57.406Z,12.70
2019-04-06T07:40:02.240Z,12.90
2019-04-06T07:45:07.898Z,13.10
2019-04-06T07:50:12.838Z,13.40
2019-04-06T07:55:17.682Z,13.60
2019-04-06T08:00:22.698Z,13.90
2019-04-06T08:05:27.644Z,14.00
2019-04-06T08:10:34.342Z,14.40
2019-04-06T08:15:39.182Z,14.80
2019-04-06T08:20:44.240Z,15.00
2019-04-06T08:25:49.090Z,15.50
2019-04-06T08:30:53.944Z,15.60
2019-04-06T08:35:58.963Z,15.70
2019-04-06T08:41:04.019Z,15.80
2019-04-06T08:46:09.026Z,15.90
2019-04-06T08:51:13.788Z,16.00
2019-04-06T08:56:18.720Z,16.30
2019-04-06T09:01:23.561Z,16.50
2019-04-06T09:06:28.469Z,16.70
2019-04-06T09:11:33.329Z,17.00
2019-04-06T09:16:38.419Z,17.30
2019-04-06T09:21:43.629Z,17.50
2019-04-06T09:26:48.866Z,17.80
2019-04-06T09:31:53.930Z,17.90
2019-04-06T09:36:58.661Z,17.70
2019-04-06T09:42:03.646Z,17.80
2019-04-06T09:47:10.247Z,18.00
2019-04-06T09:52:25.820Z,18.30
2019-04-06T09:57:41.200Z,18.60
2019-04-06T10:02:50.652Z,18.60
2019-04-06T10:07:57.164Z,18.80
2019-04-06T10:13:03.699Z,18.60
2019-04-06T10:18:22.491Z,18.90
2019-04-06T10:23:29.087Z,19.00
2019-04-06T10:28:51.822Z,19.10
2019-04-06T10:33:58.540Z,19.30
2019-04-06T10:39:08.050Z,19.70
2019-04-06T10:44:17.438Z,19.60
2019-04-06T10:49:26.742Z,19.50
2019-04-06T10:54:36.060Z,19.50
2019-04-06T10:59:59.915Z,19.60
2019-04-06T11:04:56.673Z,19.70
2019-04-06T11:10:09.201Z,19.70
2019-04-06T11:15:31.870Z,19.90
2019-04-06T11:20:47.629Z,20.00
2019-04-06T11:25:54.104Z,20.00
2019-04-06T11:31:12.586Z,19.80
2019-04-06T11:36:30.983Z,20.00
2019-04-06T11:41:37.482Z,20.40
2019-04-06T11:46:49.626Z,20.40
2019-04-06T11:52:12.573Z,20.40
2019-04-06T11:57:21.372Z,20.60
2019-04-06T12:02:30.766Z,20.40
2019-04-06T12:07:46.198Z,20.20
2019-04-06T12:12:55.464Z,20.30
2019-04-06T12:18:13.070Z,20.30
2019-04-06T12:23:36.109Z,20.40
2019-04-06T12:28:54.546Z,20.50
2019-04-06T12:34:04.022Z,20.50
2019-04-06T12:39:22.353Z,20.60
2019-04-06T12:44:46.849Z,20.60
2019-04-06T12:49:59.196Z,20.30
2019-04-06T12:55:06.001Z,20.30
2019-04-06T13:00:29.039Z,20.20
2019-04-06T13:05:50.506Z,20.30
2019-04-06T13:10:57.361Z,20.40
2019-04-06T13:16:20.251Z,20.40
2019-04-06T13:21:42.813Z,20.30
2019-04-06T13:27:01.711Z,20.00
2019-04-06T13:32:14.457Z,20.40
2019-04-06T13:37:21.022Z,20.40
2019-04-06T13:42:27.832Z,20.30
2019-04-06T13:47:40.394Z,20.10
2019-04-06T13:52:49.604Z,20.00
2019-04-06T13:58:05.663Z,20.20
2019-04-06T14:03:14.999Z,20.20
2019-04-06T14:08:30.906Z,20.20
2019-04-06T14:13:54.189Z,19.90
2019-04-06T14:19:03.310Z,20.00
2019-04-06T14:24:28.439Z,19.70
2019-04-06T14:29:35.101Z,19.80
2019-04-06T14:34:47.998Z,19.70
2019-04-06T14:40:06.825Z,19.80
2019-04-06T14:45:30.028Z,19.70
2019-04-06T14:50:45.413Z,19.60
2019-04-06T14:56:03.432Z,19.70
2019-04-06T15:01:10.265Z,19.70
2019-04-06T15:06:19.535Z,19.60
2019-04-06T15:11:26.583Z,19.50
2019-04-06T15:16:35.802Z,19.50
2019-04-06T15:21:45.543Z,19.50
2019-04-06T15:26:58.081Z,19.40
2019-04-06T15:32:11.013Z,19.30
2019-04-06T15:37:20.284Z,19.20
2019-04-06T15:42:44.996Z,19.30
2019-04-06T15:48:06.506Z,19.10
2019-04-06T15:53:16.205Z,19.00
2019-04-06T15:58:28.484Z,18.80
2019-04-06T16:03:40.784Z,18.60
2019-04-06T16:08:47.310Z,18.40
2019-04-06T16:14:11.267Z,18.30
2019-04-06T16:19:17.787Z,18.10
2019-04-06T16:24:30.104Z,18.00
2019-04-06T16:29:54.979Z,18.00
2019-04-06T16:35:16.531Z,17.80
2019-04-06T16:40:23.023Z,17.60
2019-04-06T16:45:29.794Z,17.50
2019-04-06T16:50:36.342Z,17.40
2019-04-06T16:55:42.872Z,17.20
2019-04-06T17:00:49.959Z,17.00
2019-04-06T17:06:08.882Z,16.80
2019-04-06T17:11:21.302Z,16.60
2019-04-06T17:16:43.111Z,16.50
2019-04-06T17:22:02.153Z,16.30
2019-04-06T17:27:21.120Z,16.10
2019-04-06T17:32:38.103Z,16.00
2019-04-06T17:38:01.393Z,15.80
2019-04-06T17:43:11.772Z,15.70
2019-04-06T17:48:27.478Z,15.50
2019-04-06T17:53:36.676Z,15.30
2019-04-06T17:58:59.565Z,15.20
2019-04-06T18:04:06.044Z,15.00
2019-04-06T18:09:15.361Z,14.80
2019-04-06T18:14:20.269Z,14.60
2019-04-06T18:19:25.120Z,14.40
2019-04-06T18:24:29.951Z,14.30
2019-04-06T18:29:35.590Z,14.10
2019-04-06T18:34:41.391Z,14.00
2019-04-06T18:39:46.848Z,13.90
2019-04-06T18:44:52.002Z,13.70
2019-04-06T18:49:57.327Z,13.60
2019-04-06T18:55:02.381Z,13.40
2019-04-06T19:00:12.241Z,13.30
2019-04-06T19:05:17.399Z,13.20
2019-04-06T19:10:22.232Z,13.00
2019-04-06T19:15:27.092Z,12.80
2019-04-06T19:20:31.946Z,12.70
2019-04-06T19:25:36.787Z,12.60
2019-04-06T19:30:41.873Z,12.40
2019-04-06T19:35:47.220Z,12.30
2019-04-06T19:40:52.966Z,12.20
2019-04-06T19:45:58.092Z,12.10
2019-04-06T19:51:03.471Z,12.00
2019-04-06T19:56:08.704Z,11.90
2019-04-06T20:01:14.718Z,11.80
2019-04-06T20:06:20.059Z,11.60
2019-04-06T20:11:25.586Z,11.60
2019-04-06T20:16:30.796Z,11.60
2019-04-06T20:21:36.149Z,11.50
2019-04-06T20:26:41.548Z,11.40
2019-04-06T20:31:46.533Z,11.30
2019-04-06T20:36:51.373Z,11.20
2019-04-06T20:41:56.268Z,11.10
2019-04-06T20:47:01.585Z,10.90
2019-04-06T20:52:07.151Z,10.80
2019-04-06T20:57:12.015Z,10.70
2019-04-06T21:02:17.223Z,10.70
2019-04-06T21:07:22.832Z,10.70
2019-04-06T21:12:27.746Z,10.60
2019-04-06T21:17:32.452Z,10.50
2019-04-06T21:22:37.291Z,10.40
2019-04-06T21:27:43.410Z,10.30
2019-04-06T21:32:49.425Z,10.10
2019-04-06T21:37:54.398Z,10.00
2019-04-06T21:42:59.988Z,10.00
2019-04-06T21:48:05.793Z,9.90
2019-04-06T21:53:10.683Z,9.90
2019-04-06T21:58:15.509Z,9.80
2019-04-06T22:03:20.735Z,9.70
2019-04-06T22:08:25.920Z,9.60
2019-04-06T22:13:30.821Z,9.50
2019-04-06T22:18:36.218Z,9.40
2019-04-06T22:23:44.382Z,9.30
2019-04-06T22:28:48.073Z,9.20
2019-04-06T22:33:53.490Z,9.10
2019-04-06T22:38:59.439Z,9.00
2019-04-06T22:44:05.664Z,8.90
2019-04-06T22:49:11.198Z,8.70
2019-04-06T22:54:16.328Z,8.50
2019-04-06T22:59:21.087Z,8.40
2019-04-06T23:04:47.253Z,8.10
2019-04-06T23:09:43.038Z,8.00
2019-04-06T23:14:47.873Z,8.00
2019-04-06T23:19:53.185Z,7.90
2019-04-06T23:24:58.086Z,7.80
2019-04-06T23:30:03.456Z,7.60
2019-04-06T23:35:08.484Z,7.60
2019-04-06T23:40:13.331Z,7.40
2019-04-06T23:45:18.506Z,7.30
2019-04-06T23:50:23.639Z,7.20
2019-04-06T23:55:29.405Z,7.10
